Terminal Aerodrome Forecast
Issued by NWS Charleston, WV

Current Version | Previous Version | Text Only | Print | Product List | Glossary Off
Versions: 1 2 3 4 5 6 7 8 9 10 11 12 13 14 15 16 17 18 19 20 21 22 23 24 25 26

994
FTUS41 KRLX 201449 AAA
TAFCRW
TAF AMD
KCRW 201449Z 2015/2112 25003KT P6SM BKN040
     FM201700 27004KT P6SM VCTS BKN040CB
     FM202200 VRB03KT P6SM SCT035 BKN150
     FM210700 00000KT 2SM BR SCT001=

USA.gov is the U.S. government's official web portal to all federal, state and local government web resources and services.